sensor_id;sensor_type;location;lat;lon;timestamp;P1;durP1;ratioP1;P2;durP2;ratioP2
53293;SDS011;39181;53.440;5.644;2023-08-06T00:01:57;7.88;;;5.05;;
53293;SDS011;39181;53.440;5.644;2023-08-06T00:04:23;6.13;;;4.65;;
53293;SDS011;39181;53.440;5.644;2023-08-06T00:06:48;6.07;;;4.60;;
53293;SDS011;39181;53.440;5.644;2023-08-06T00:09:14;7.20;;;4.70;;
53293;SDS011;39181;53.440;5.644;2023-08-06T00:11:39;5.85;;;4.65;;
53293;SDS011;39181;53.440;5.644;2023-08-06T00:14:06;8.35;;;4.20;;
53293;SDS011;39181;53.440;5.644;2023-08-06T00:16:31;6.93;;;3.90;;
53293;SDS011;39181;53.440;5.644;2023-08-06T00:18:57;6.47;;;4.00;;
53293;SDS011;39181;53.440;5.644;2023-08-06T00:21:22;5.90;;;4.13;;
53293;SDS011;39181;53.440;5.644;2023-08-06T00:23:48;4.05;;;3.65;;
53293;SDS011;39181;53.440;5.644;2023-08-06T00:26:13;5.40;;;3.60;;
53293;SDS011;39181;53.440;5.644;2023-08-06T00:28:39;4.70;;;3.42;;
53293;SDS011;39181;53.440;5.644;2023-08-06T00:31:05;6.80;;;4.15;;
53293;SDS011;39181;53.440;5.644;2023-08-06T00:33:30;5.35;;;3.38;;
53293;SDS011;39181;53.440;5.644;2023-08-06T00:35:56;4.85;;;3.75;;
53293;SDS011;39181;53.440;5.644;2023-08-06T00:38:21;6.88;;;4.00;;
53293;SDS011;39181;53.440;5.644;2023-08-06T00:40:47;7.40;;;3.50;;
53293;SDS011;39181;53.440;5.644;2023-08-06T00:43:12;6.00;;;3.75;;
53293;SDS011;39181;53.440;5.644;2023-08-06T00:45:38;6.03;;;3.88;;
53293;SDS011;39181;53.440;5.644;2023-08-06T00:48:03;4.68;;;3.75;;
53293;SDS011;39181;53.440;5.644;2023-08-06T00:50:31;5.30;;;4.07;;
53293;SDS011;39181;53.440;5.644;2023-08-06T00:52:56;5.57;;;3.70;;
53293;SDS011;39181;53.440;5.644;2023-08-06T00:55:22;8.65;;;3.53;;
53293;SDS011;39181;53.440;5.644;2023-08-06T00:57:48;4.43;;;3.42;;
53293;SDS011;39181;53.440;5.644;2023-08-06T01:00:15;5.38;;;3.50;;
53293;SDS011;39181;53.440;5.644;2023-08-06T01:02:41;4.85;;;3.63;;
53293;SDS011;39181;53.440;5.644;2023-08-06T01:05:06;6.70;;;4.13;;
53293;SDS011;39181;53.440;5.644;2023-08-06T01:15:56;7.28;;;4.40;;
53293;SDS011;39181;53.440;5.644;2023-08-06T01:18:24;8.50;;;3.97;;
53293;SDS011;39181;53.440;5.644;2023-08-06T01:20:50;5.32;;;4.43;;
53293;SDS011;39181;53.440;5.644;2023-08-06T01:23:16;5.88;;;4.22;;
53293;SDS011;39181;53.440;5.644;2023-08-06T01:25:45;5.85;;;4.20;;
53293;SDS011;39181;53.440;5.644;2023-08-06T01:28:17;4.50;;;3.85;;
53293;SDS011;39181;53.440;5.644;2023-08-06T01:30:52;6.32;;;4.00;;
53293;SDS011;39181;53.440;5.644;2023-08-06T01:33:21;6.97;;;4.28;;
53293;SDS011;39181;53.440;5.644;2023-08-06T01:35:48;6.10;;;4.10;;
53293;SDS011;39181;53.440;5.644;2023-08-06T01:38:15;7.38;;;4.80;;
53293;SDS011;39181;53.440;5.644;2023-08-06T01:40:41;8.55;;;4.45;;
53293;SDS011;39181;53.440;5.644;2023-08-06T01:43:06;9.15;;;5.90;;
53293;SDS011;39181;53.440;5.644;2023-08-06T01:45:32;8.48;;;6.20;;
53293;SDS011;39181;53.440;5.644;2023-08-06T01:47:57;8.95;;;6.45;;
53293;SDS011;39181;53.440;5.644;2023-08-06T01:50:23;9.35;;;6.00;;
53293;SDS011;39181;53.440;5.644;2023-08-06T01:52:48;8.15;;;6.15;;
53293;SDS011;39181;53.440;5.644;2023-08-06T01:55:14;8.27;;;5.75;;
53293;SDS011;39181;53.440;5.644;2023-08-06T01:57:40;8.18;;;5.70;;
53293;SDS011;39181;53.440;5.644;2023-08-06T02:00:05;8.68;;;5.78;;
53293;SDS011;39181;53.440;5.644;2023-08-06T02:02:31;7.05;;;5.07;;
53293;SDS011;39181;53.440;5.644;2023-08-06T02:04:58;9.02;;;5.78;;
53293;SDS011;39181;53.440;5.644;2023-08-06T02:07:24;8.75;;;6.45;;
53293;SDS011;39181;53.440;5.644;2023-08-06T02:09:49;9.45;;;6.95;;
53293;SDS011;39181;53.440;5.644;2023-08-06T02:12:15;9.35;;;6.57;;
53293;SDS011;39181;53.440;5.644;2023-08-06T02:14:41;8.82;;;6.93;;
53293;SDS011;39181;53.440;5.644;2023-08-06T02:17:06;9.27;;;7.18;;
53293;SDS011;39181;53.440;5.644;2023-08-06T02:19:32;10.48;;;7.47;;
53293;SDS011;39181;53.440;5.644;2023-08-06T02:21:57;13.35;;;8.35;;
53293;SDS011;39181;53.440;5.644;2023-08-06T02:24:23;11.40;;;7.53;;
53293;SDS011;39181;53.440;5.644;2023-08-06T02:26:48;10.48;;;7.68;;
53293;SDS011;39181;53.440;5.644;2023-08-06T02:29:16;8.85;;;7.43;;
53293;SDS011;39181;53.440;5.644;2023-08-06T02:31:42;8.65;;;6.88;;
53293;SDS011;39181;53.440;5.644;2023-08-06T02:34:07;10.27;;;8.48;;
53293;SDS011;39181;53.440;5.644;2023-08-06T02:36:33;10.18;;;6.53;;
53293;SDS011;39181;53.440;5.644;2023-08-06T02:38:58;12.00;;;7.63;;
53293;SDS011;39181;53.440;5.644;2023-08-06T02:41:24;9.57;;;7.57;;
53293;SDS011;39181;53.440;5.644;2023-08-06T02:43:50;8.63;;;6.32;;
53293;SDS011;39181;53.440;5.644;2023-08-06T02:46:15;7.47;;;6.00;;
53293;SDS011;39181;53.440;5.644;2023-08-06T02:48:41;10.93;;;7.68;;
53293;SDS011;39181;53.440;5.644;2023-08-06T02:51:06;9.95;;;7.28;;
53293;SDS011;39181;53.440;5.644;2023-08-06T02:53:32;11.20;;;6.82;;
53293;SDS011;39181;53.440;5.644;2023-08-06T02:55:57;10.20;;;7.90;;
53293;SDS011;39181;53.440;5.644;2023-08-06T02:58:23;11.75;;;7.88;;
53293;SDS011;39181;53.440;5.644;2023-08-06T03:01:02;11.70;;;7.38;;
53293;SDS011;39181;53.440;5.644;2023-08-06T03:03:29;11.55;;;7.57;;
53293;SDS011;39181;53.440;5.644;2023-08-06T03:05:56;7.97;;;6.40;;
53293;SDS011;39181;53.440;5.644;2023-08-06T03:08:21;10.63;;;7.13;;
53293;SDS011;39181;53.440;5.644;2023-08-06T03:10:47;8.93;;;6.43;;
53293;SDS011;39181;53.440;5.644;2023-08-06T03:13:14;9.20;;;6.65;;
53293;SDS011;39181;53.440;5.644;2023-08-06T03:15:40;12.10;;;7.97;;
53293;SDS011;39181;53.440;5.644;2023-08-06T03:18:06;12.27;;;8.05;;
53293;SDS011;39181;53.440;5.644;2023-08-06T03:20:32;12.05;;;8.30;;
53293;SDS011;39181;53.440;5.644;2023-08-06T03:22:57;9.30;;;7.85;;
53293;SDS011;39181;53.440;5.644;2023-08-06T03:25:23;9.27;;;7.13;;
53293;SDS011;39181;53.440;5.644;2023-08-06T03:27:49;13.38;;;8.25;;
53293;SDS011;39181;53.440;5.644;2023-08-06T03:30:14;10.15;;;7.30;;
53293;SDS011;39181;53.440;5.644;2023-08-06T03:32:40;9.20;;;7.63;;
53293;SDS011;39181;53.440;5.644;2023-08-06T03:35:05;10.40;;;6.68;;
53293;SDS011;39181;53.440;5.644;2023-08-06T03:37:31;10.48;;;7.22;;
53293;SDS011;39181;53.440;5.644;2023-08-06T03:39:57;7.30;;;6.55;;
53293;SDS011;39181;53.440;5.644;2023-08-06T03:42:22;12.63;;;7.38;;
53293;SDS011;39181;53.440;5.644;2023-08-06T03:44:48;17.98;;;7.10;;
53293;SDS011;39181;53.440;5.644;2023-08-06T03:47:14;10.63;;;6.93;;
53293;SDS011;39181;53.440;5.644;2023-08-06T03:49:39;9.82;;;7.00;;
53293;SDS011;39181;53.440;5.644;2023-08-06T03:52:05;8.85;;;6.65;;
53293;SDS011;39181;53.440;5.644;2023-08-06T03:54:31;11.45;;;7.50;;
53293;SDS011;39181;53.440;5.644;2023-08-06T03:56:56;10.38;;;8.10;;
53293;SDS011;39181;53.440;5.644;2023-08-06T03:59:22;7.13;;;5.63;;
53293;SDS011;39181;53.440;5.644;2023-08-06T04:01:48;8.23;;;6.63;;
53293;SDS011;39181;53.440;5.644;2023-08-06T04:04:13;7.95;;;5.60;;
53293;SDS011;39181;53.440;5.644;2023-08-06T04:06:39;9.32;;;5.97;;
53293;SDS011;39181;53.440;5.644;2023-08-06T04:09:04;8.02;;;6.18;;
53293;SDS011;39181;53.440;5.644;2023-08-06T04:11:30;6.68;;;5.30;;
53293;SDS011;39181;53.440;5.644;2023-08-06T04:13:55;9.15;;;6.35;;
53293;SDS011;39181;53.440;5.644;2023-08-06T04:16:21;8.60;;;6.45;;
53293;SDS011;39181;53.440;5.644;2023-08-06T04:18:47;10.13;;;6.63;;
53293;SDS011;39181;53.440;5.644;2023-08-06T04:21:12;11.18;;;6.25;;
53293;SDS011;39181;53.440;5.644;2023-08-06T04:23:38;6.28;;;4.88;;
53293;SDS011;39181;53.440;5.644;2023-08-06T04:26:03;10.23;;;5.90;;
53293;SDS011;39181;53.440;5.644;2023-08-06T04:28:29;8.05;;;6.45;;
53293;SDS011;39181;53.440;5.644;2023-08-06T04:30:55;8.50;;;7.32;;
53293;SDS011;39181;53.440;5.644;2023-08-06T04:33:21;8.32;;;6.10;;
53293;SDS011;39181;53.440;5.644;2023-08-06T04:35:46;9.05;;;6.78;;
53293;SDS011;39181;53.440;5.644;2023-08-06T04:38:12;8.70;;;6.85;;
53293;SDS011;39181;53.440;5.644;2023-08-06T04:40:37;9.13;;;6.50;;
53293;SDS011;39181;53.440;5.644;2023-08-06T04:43:03;10.50;;;6.85;;
53293;SDS011;39181;53.440;5.644;2023-08-06T04:45:28;9.90;;;6.65;;
53293;SDS011;39181;53.440;5.644;2023-08-06T04:47:54;12.05;;;7.00;;
53293;SDS011;39181;53.440;5.644;2023-08-06T04:50:20;7.13;;;6.28;;
53293;SDS011;39181;53.440;5.644;2023-08-06T04:52:45;10.73;;;6.85;;
53293;SDS011;39181;53.440;5.644;2023-08-06T04:55:11;8.93;;;5.95;;
53293;SDS011;39181;53.440;5.644;2023-08-06T04:57:37;11.65;;;6.70;;
53293;SDS011;39181;53.440;5.644;2023-08-06T05:00:02;9.88;;;6.72;;
53293;SDS011;39181;53.440;5.644;2023-08-06T05:02:29;10.60;;;6.38;;
53293;SDS011;39181;53.440;5.644;2023-08-06T05:04:57;8.90;;;5.63;;
53293;SDS011;39181;53.440;5.644;2023-08-06T05:07:23;8.80;;;5.65;;
53293;SDS011;39181;53.440;5.644;2023-08-06T05:09:48;9.20;;;6.22;;
53293;SDS011;39181;53.440;5.644;2023-08-06T05:12:14;6.45;;;5.78;;
53293;SDS011;39181;53.440;5.644;2023-08-06T05:14:40;7.28;;;6.10;;
53293;SDS011;39181;53.440;5.644;2023-08-06T05:17:05;10.25;;;6.65;;
53293;SDS011;39181;53.440;5.644;2023-08-06T05:19:31;7.47;;;5.75;;
53293;SDS011;39181;53.440;5.644;2023-08-06T05:21:56;9.55;;;6.30;;
53293;SDS011;39181;53.440;5.644;2023-08-06T05:24:22;9.10;;;5.97;;
53293;SDS011;39181;53.440;5.644;2023-08-06T05:26:48;8.70;;;6.10;;
53293;SDS011;39181;53.440;5.644;2023-08-06T05:29:13;7.20;;;5.82;;
53293;SDS011;39181;53.440;5.644;2023-08-06T05:31:39;8.88;;;6.35;;
53293;SDS011;39181;53.440;5.644;2023-08-06T05:34:04;8.55;;;5.88;;
53293;SDS011;39181;53.440;5.644;2023-08-06T05:36:30;10.73;;;6.75;;
53293;SDS011;39181;53.440;5.644;2023-08-06T05:38:56;9.23;;;6.30;;
53293;SDS011;39181;53.440;5.644;2023-08-06T05:41:21;7.55;;;6.03;;
53293;SDS011;39181;53.440;5.644;2023-08-06T05:43:47;5.65;;;5.00;;
53293;SDS011;39181;53.440;5.644;2023-08-06T05:46:13;10.38;;;6.03;;
53293;SDS011;39181;53.440;5.644;2023-08-06T05:48:38;6.97;;;5.38;;
53293;SDS011;39181;53.440;5.644;2023-08-06T05:51:04;8.98;;;5.65;;
53293;SDS011;39181;53.440;5.644;2023-08-06T05:53:29;9.38;;;4.82;;
53293;SDS011;39181;53.440;5.644;2023-08-06T05:55:55;7.63;;;6.18;;
53293;SDS011;39181;53.440;5.644;2023-08-06T05:58:20;7.10;;;5.65;;
53293;SDS011;39181;53.440;5.644;2023-08-06T06:00:46;6.43;;;5.07;;
53293;SDS011;39181;53.440;5.644;2023-08-06T06:03:12;7.18;;;5.40;;
53293;SDS011;39181;53.440;5.644;2023-08-06T06:05:37;6.40;;;4.95;;
53293;SDS011;39181;53.440;5.644;2023-08-06T06:08:04;9.38;;;5.88;;
53293;SDS011;39181;53.440;5.644;2023-08-06T06:10:31;6.20;;;4.35;;
53293;SDS011;39181;53.440;5.644;2023-08-06T06:12:56;7.53;;;5.75;;
53293;SDS011;39181;53.440;5.644;2023-08-06T06:15:22;8.07;;;5.97;;
53293;SDS011;39181;53.440;5.644;2023-08-06T06:17:47;6.95;;;5.72;;
53293;SDS011;39181;53.440;5.644;2023-08-06T06:20:13;6.93;;;5.20;;
53293;SDS011;39181;53.440;5.644;2023-08-06T06:22:39;6.40;;;4.90;;
53293;SDS011;39181;53.440;5.644;2023-08-06T06:25:05;5.00;;;3.88;;
53293;SDS011;39181;53.440;5.644;2023-08-06T06:27:31;4.63;;;3.42;;
53293;SDS011;39181;53.440;5.644;2023-08-06T06:29:56;4.20;;;3.10;;
53293;SDS011;39181;53.440;5.644;2023-08-06T06:32:22;6.72;;;3.33;;
53293;SDS011;39181;53.440;5.644;2023-08-06T06:34:47;3.42;;;2.92;;
53293;SDS011;39181;53.440;5.644;2023-08-06T06:37:15;3.13;;;2.65;;
53293;SDS011;39181;53.440;5.644;2023-08-06T06:39:40;3.58;;;2.78;;
53293;SDS011;39181;53.440;5.644;2023-08-06T06:42:06;4.22;;;2.45;;
53293;SDS011;39181;53.440;5.644;2023-08-06T06:44:31;3.65;;;2.05;;
53293;SDS011;39181;53.440;5.644;2023-08-06T06:46:57;3.42;;;2.60;;
53293;SDS011;39181;53.440;5.644;2023-08-06T06:49:22;3.92;;;2.33;;
53293;SDS011;39181;53.440;5.644;2023-08-06T06:51:48;2.78;;;1.95;;
53293;SDS011;39181;53.440;5.644;2023-08-06T06:54:13;2.58;;;2.15;;
53293;SDS011;39181;53.440;5.644;2023-08-06T06:56:39;2.85;;;2.25;;
53293;SDS011;39181;53.440;5.644;2023-08-06T06:59:05;3.03;;;2.03;;
53293;SDS011;39181;53.440;5.644;2023-08-06T07:01:30;2.20;;;1.83;;
53293;SDS011;39181;53.440;5.644;2023-08-06T07:03:56;5.55;;;2.30;;
53293;SDS011;39181;53.440;5.644;2023-08-06T07:06:22;4.80;;;2.25;;
53293;SDS011;39181;53.440;5.644;2023-08-06T07:08:47;3.67;;;1.75;;
53293;SDS011;39181;53.440;5.644;2023-08-06T07:11:13;10.60;;;2.30;;
53293;SDS011;39181;53.440;5.644;2023-08-06T07:13:39;5.32;;;1.90;;
53293;SDS011;39181;53.440;5.644;2023-08-06T07:16:04;7.72;;;2.00;;
53293;SDS011;39181;53.440;5.644;2023-08-06T07:18:30;3.60;;;2.35;;
53293;SDS011;39181;53.440;5.644;2023-08-06T07:20:56;5.53;;;2.35;;
53293;SDS011;39181;53.440;5.644;2023-08-06T07:23:22;6.50;;;1.90;;
53293;SDS011;39181;53.440;5.644;2023-08-06T07:25:49;5.10;;;2.00;;
53293;SDS011;39181;53.440;5.644;2023-08-06T07:28:15;4.68;;;2.08;;
53293;SDS011;39181;53.440;5.644;2023-08-06T07:30:41;5.07;;;2.53;;
53293;SDS011;39181;53.440;5.644;2023-08-06T07:33:08;6.25;;;1.98;;
53293;SDS011;39181;53.440;5.644;2023-08-06T07:35:34;5.22;;;2.03;;
53293;SDS011;39181;53.440;5.644;2023-08-06T07:38:00;5.30;;;2.33;;
53293;SDS011;39181;53.440;5.644;2023-08-06T07:40:25;4.53;;;2.30;;
53293;SDS011;39181;53.440;5.644;2023-08-06T07:42:51;6.38;;;3.00;;
53293;SDS011;39181;53.440;5.644;2023-08-06T07:45:16;4.43;;;2.65;;
53293;SDS011;39181;53.440;5.644;2023-08-06T07:47:42;6.22;;;3.00;;
53293;SDS011;39181;53.440;5.644;2023-08-06T07:50:08;6.35;;;2.60;;
53293;SDS011;39181;53.440;5.644;2023-08-06T07:52:34;4.25;;;2.67;;
53293;SDS011;39181;53.440;5.644;2023-08-06T07:55:00;8.40;;;2.58;;
53293;SDS011;39181;53.440;5.644;2023-08-06T07:57:29;4.47;;;2.75;;
53293;SDS011;39181;53.440;5.644;2023-08-06T07:59:55;3.72;;;2.00;;
53293;SDS011;39181;53.440;5.644;2023-08-06T08:02:21;5.45;;;2.28;;
53293;SDS011;39181;53.440;5.644;2023-08-06T08:04:47;5.20;;;2.33;;
53293;SDS011;39181;53.440;5.644;2023-08-06T08:07:12;6.78;;;2.17;;
53293;SDS011;39181;53.440;5.644;2023-08-06T08:09:38;3.72;;;1.83;;
53293;SDS011;39181;53.440;5.644;2023-08-06T08:12:04;3.05;;;1.60;;
53293;SDS011;39181;53.440;5.644;2023-08-06T08:14:29;2.90;;;1.80;;
53293;SDS011;39181;53.440;5.644;2023-08-06T08:17:00;7.13;;;2.00;;
53293;SDS011;39181;53.440;5.644;2023-08-06T08:19:27;4.15;;;2.00;;
53293;SDS011;39181;53.440;5.644;2023-08-06T08:21:53;3.53;;;1.90;;
53293;SDS011;39181;53.440;5.644;2023-08-06T08:24:19;2.58;;;1.67;;
53293;SDS011;39181;53.440;5.644;2023-08-06T08:26:48;2.08;;;1.48;;
53293;SDS011;39181;53.440;5.644;2023-08-06T08:29:14;3.00;;;1.88;;
53293;SDS011;39181;53.440;5.644;2023-08-06T08:31:40;4.30;;;2.08;;
53293;SDS011;39181;53.440;5.644;2023-08-06T08:34:06;4.63;;;1.80;;
53293;SDS011;39181;53.440;5.644;2023-08-06T08:36:31;3.08;;;1.85;;
53293;SDS011;39181;53.440;5.644;2023-08-06T08:38:57;3.60;;;2.00;;
53293;SDS011;39181;53.440;5.644;2023-08-06T08:41:23;2.58;;;1.90;;
53293;SDS011;39181;53.440;5.644;2023-08-06T08:43:49;6.53;;;2.10;;
53293;SDS011;39181;53.440;5.644;2023-08-06T08:46:17;4.10;;;2.03;;
53293;SDS011;39181;53.440;5.644;2023-08-06T08:48:43;2.20;;;1.50;;
53293;SDS011;39181;53.440;5.644;2023-08-06T08:51:10;3.53;;;2.10;;
53293;SDS011;39181;53.440;5.644;2023-08-06T08:53:38;4.32;;;1.98;;
53293;SDS011;39181;53.440;5.644;2023-08-06T08:56:04;3.35;;;1.63;;
53293;SDS011;39181;53.440;5.644;2023-08-06T08:58:30;4.75;;;1.90;;
53293;SDS011;39181;53.440;5.644;2023-08-06T09:00:56;3.65;;;2.00;;
53293;SDS011;39181;53.440;5.644;2023-08-06T09:03:22;3.50;;;1.88;;
53293;SDS011;39181;53.440;5.644;2023-08-06T09:05:49;5.18;;;2.10;;
53293;SDS011;39181;53.440;5.644;2023-08-06T09:08:18;6.35;;;2.33;;
53293;SDS011;39181;53.440;5.644;2023-08-06T09:10:49;5.55;;;2.28;;
53293;SDS011;39181;53.440;5.644;2023-08-06T09:13:15;4.35;;;2.42;;
53293;SDS011;39181;53.440;5.644;2023-08-06T09:15:41;5.25;;;2.30;;
53293;SDS011;39181;53.440;5.644;2023-08-06T09:18:09;4.00;;;2.38;;
53293;SDS011;39181;53.440;5.644;2023-08-06T09:20:37;4.32;;;2.17;;
53293;SDS011;39181;53.440;5.644;2023-08-06T09:23:08;3.72;;;2.22;;
53293;SDS011;39181;53.440;5.644;2023-08-06T09:25:36;3.25;;;2.50;;
53293;SDS011;39181;53.440;5.644;2023-08-06T09:28:03;3.22;;;2.15;;
53293;SDS011;39181;53.440;5.644;2023-08-06T09:30:33;3.47;;;2.45;;
53293;SDS011;39181;53.440;5.644;2023-08-06T09:33:02;7.40;;;2.40;;
53293;SDS011;39181;53.440;5.644;2023-08-06T09:35:29;3.78;;;2.42;;
53293;SDS011;39181;53.440;5.644;2023-08-06T09:37:55;3.97;;;2.17;;
53293;SDS011;39181;53.440;5.644;2023-08-06T09:40:31;4.18;;;2.10;;
53293;SDS011;39181;53.440;5.644;2023-08-06T09:42:57;6.03;;;2.10;;
53293;SDS011;39181;53.440;5.644;2023-08-06T09:45:28;4.10;;;2.15;;
53293;SDS011;39181;53.440;5.644;2023-08-06T09:48:05;2.75;;;2.03;;
53293;SDS011;39181;53.440;5.644;2023-08-06T09:50:32;3.33;;;1.85;;
53293;SDS011;39181;53.440;5.644;2023-08-06T09:53:03;2.92;;;1.80;;
53293;SDS011;39181;53.440;5.644;2023-08-06T09:55:30;3.65;;;2.20;;
53293;SDS011;39181;53.440;5.644;2023-08-06T09:57:58;2.42;;;1.50;;
53293;SDS011;39181;53.440;5.644;2023-08-06T10:00:24;4.95;;;1.70;;
53293;SDS011;39181;53.440;5.644;2023-08-06T10:02:50;2.20;;;1.55;;
53293;SDS011;39181;53.440;5.644;2023-08-06T10:05:19;3.08;;;1.73;;
53293;SDS011;39181;53.440;5.644;2023-08-06T10:07:45;5.22;;;1.98;;
53293;SDS011;39181;53.440;5.644;2023-08-06T10:10:13;3.28;;;2.45;;
53293;SDS011;39181;53.440;5.644;2023-08-06T10:12:44;3.80;;;1.60;;
53293;SDS011;39181;53.440;5.644;2023-08-06T10:15:14;5.78;;;1.80;;
53293;SDS011;39181;53.440;5.644;2023-08-06T10:17:42;4.72;;;1.83;;
53293;SDS011;39181;53.440;5.644;2023-08-06T10:20:10;4.85;;;1.90;;
53293;SDS011;39181;53.440;5.644;2023-08-06T10:22:36;3.10;;;1.90;;
53293;SDS011;39181;53.440;5.644;2023-08-06T10:25:07;3.53;;;2.38;;
53293;SDS011;39181;53.440;5.644;2023-08-06T10:30:32;3.85;;;1.92;;
53293;SDS011;39181;53.440;5.644;2023-08-06T10:33:04;4.97;;;2.20;;
53293;SDS011;39181;53.440;5.644;2023-08-06T10:35:36;2.50;;;1.80;;
53293;SDS011;39181;53.440;5.644;2023-08-06T10:38:09;2.47;;;1.83;;
53293;SDS011;39181;53.440;5.644;2023-08-06T10:40:48;3.85;;;1.77;;
53293;SDS011;39181;53.440;5.644;2023-08-06T10:43:26;2.55;;;2.13;;
53293;SDS011;39181;53.440;5.644;2023-08-06T10:46:00;5.57;;;2.20;;
53293;SDS011;39181;53.440;5.644;2023-08-06T10:48:34;2.78;;;2.05;;
53293;SDS011;39181;53.440;5.644;2023-08-06T10:51:08;4.20;;;2.00;;
53293;SDS011;39181;53.440;5.644;2023-08-06T10:53:35;2.75;;;2.05;;
53293;SDS011;39181;53.440;5.644;2023-08-06T10:56:02;2.63;;;2.10;;
53293;SDS011;39181;53.440;5.644;2023-08-06T10:58:36;3.63;;;2.40;;
53293;SDS011;39181;53.440;5.644;2023-08-06T11:01:02;5.47;;;2.17;;
53293;SDS011;39181;53.440;5.644;2023-08-06T11:03:28;2.38;;;1.85;;
53293;SDS011;39181;53.440;5.644;2023-08-06T11:05:53;3.05;;;1.60;;
53293;SDS011;39181;53.440;5.644;2023-08-06T11:08:26;3.22;;;2.13;;
53293;SDS011;39181;53.440;5.644;2023-08-06T11:10:52;4.70;;;1.85;;
53293;SDS011;39181;53.440;5.644;2023-08-06T11:13:18;2.95;;;1.80;;
53293;SDS011;39181;53.440;5.644;2023-08-06T11:15:44;3.08;;;1.90;;
53293;SDS011;39181;53.440;5.644;2023-08-06T11:18:10;3.15;;;2.05;;
53293;SDS011;39181;53.440;5.644;2023-08-06T11:20:36;6.20;;;2.83;;
53293;SDS011;39181;53.440;5.644;2023-08-06T11:23:02;3.33;;;1.85;;
53293;SDS011;39181;53.440;5.644;2023-08-06T11:25:29;3.90;;;1.85;;
53293;SDS011;39181;53.440;5.644;2023-08-06T11:27:55;2.40;;;1.60;;
53293;SDS011;39181;53.440;5.644;2023-08-06T11:30:20;2.00;;;1.80;;
53293;SDS011;39181;53.440;5.644;2023-08-06T11:32:47;3.15;;;1.90;;
53293;SDS011;39181;53.440;5.644;2023-08-06T11:35:13;2.53;;;1.63;;
53293;SDS011;39181;53.440;5.644;2023-08-06T11:37:43;2.03;;;1.70;;
53293;SDS011;39181;53.440;5.644;2023-08-06T11:40:09;2.30;;;1.85;;
53293;SDS011;39181;53.440;5.644;2023-08-06T11:42:36;4.72;;;2.20;;
53293;SDS011;39181;53.440;5.644;2023-08-06T11:45:05;5.40;;;2.30;;
53293;SDS011;39181;53.440;5.644;2023-08-06T11:47:30;3.95;;;2.00;;
53293;SDS011;39181;53.440;5.644;2023-08-06T11:49:56;4.13;;;2.08;;
53293;SDS011;39181;53.440;5.644;2023-08-06T11:52:22;3.58;;;1.95;;
53293;SDS011;39181;53.440;5.644;2023-08-06T11:57:37;2.70;;;1.90;;
53293;SDS011;39181;53.440;5.644;2023-08-06T12:00:08;4.35;;;1.98;;
53293;SDS011;39181;53.440;5.644;2023-08-06T12:02:35;3.70;;;1.70;;
53293;SDS011;39181;53.440;5.644;2023-08-06T12:07:37;2.15;;;1.90;;
53293;SDS011;39181;53.440;5.644;2023-08-06T12:10:05;3.75;;;1.63;;
53293;SDS011;39181;53.440;5.644;2023-08-06T12:12:31;4.18;;;1.70;;
53293;SDS011;39181;53.440;5.644;2023-08-06T12:14:57;2.05;;;1.63;;
53293;SDS011;39181;53.440;5.644;2023-08-06T12:17:23;3.72;;;1.67;;
53293;SDS011;39181;53.440;5.644;2023-08-06T12:19:49;1.83;;;1.48;;
53293;SDS011;39181;53.440;5.644;2023-08-06T12:22:15;2.55;;;1.58;;
53293;SDS011;39181;53.440;5.644;2023-08-06T12:24:42;2.63;;;1.75;;
53293;SDS011;39181;53.440;5.644;2023-08-06T12:27:08;3.55;;;1.52;;
53293;SDS011;39181;53.440;5.644;2023-08-06T12:29:35;4.88;;;1.95;;
53293;SDS011;39181;53.440;5.644;2023-08-06T12:32:01;2.03;;;1.30;;
53293;SDS011;39181;53.440;5.644;2023-08-06T12:34:27;3.17;;;1.30;;
53293;SDS011;39181;53.440;5.644;2023-08-06T12:36:52;2.33;;;1.58;;
53293;SDS011;39181;53.440;5.644;2023-08-06T12:39:18;5.22;;;1.75;;
53293;SDS011;39181;53.440;5.644;2023-08-06T12:41:43;2.33;;;1.38;;
53293;SDS011;39181;53.440;5.644;2023-08-06T12:44:11;2.58;;;1.52;;
53293;SDS011;39181;53.440;5.644;2023-08-06T12:46:37;2.38;;;1.48;;
53293;SDS011;39181;53.440;5.644;2023-08-06T12:49:02;2.78;;;1.50;;
53293;SDS011;39181;53.440;5.644;2023-08-06T12:51:28;4.05;;;1.73;;
53293;SDS011;39181;53.440;5.644;2023-08-06T12:53:54;1.63;;;1.50;;
53293;SDS011;39181;53.440;5.644;2023-08-06T12:56:20;2.78;;;1.55;;
53293;SDS011;39181;53.440;5.644;2023-08-06T12:58:45;5.30;;;1.30;;
53293;SDS011;39181;53.440;5.644;2023-08-06T13:01:11;2.35;;;1.30;;
53293;SDS011;39181;53.440;5.644;2023-08-06T13:03:36;2.60;;;1.60;;
53293;SDS011;39181;53.440;5.644;2023-08-06T13:06:02;2.22;;;1.58;;
53293;SDS011;39181;53.440;5.644;2023-08-06T13:08:27;3.45;;;1.75;;
53293;SDS011;39181;53.440;5.644;2023-08-06T13:10:53;1.83;;;1.38;;
53293;SDS011;39181;53.440;5.644;2023-08-06T13:13:19;2.58;;;1.42;;
53293;SDS011;39181;53.440;5.644;2023-08-06T13:15:44;5.03;;;1.48;;
53293;SDS011;39181;53.440;5.644;2023-08-06T13:18:10;2.03;;;1.40;;
53293;SDS011;39181;53.440;5.644;2023-08-06T13:20:37;3.25;;;1.42;;
53293;SDS011;39181;53.440;5.644;2023-08-06T13:23:05;2.80;;;1.48;;
53293;SDS011;39181;53.440;5.644;2023-08-06T13:25:30;5.53;;;1.48;;
53293;SDS011;39181;53.440;5.644;2023-08-06T13:28:01;5.47;;;2.05;;
53293;SDS011;39181;53.440;5.644;2023-08-06T13:30:27;4.28;;;1.65;;
53293;SDS011;39181;53.440;5.644;2023-08-06T13:32:53;3.20;;;1.40;;
53293;SDS011;39181;53.440;5.644;2023-08-06T13:35:20;3.22;;;2.60;;
53293;SDS011;39181;53.440;5.644;2023-08-06T13:37:46;3.17;;;1.75;;
53293;SDS011;39181;53.440;5.644;2023-08-06T13:40:13;2.78;;;1.70;;
53293;SDS011;39181;53.440;5.644;2023-08-06T13:42:38;2.13;;;1.27;;
53293;SDS011;39181;53.440;5.644;2023-08-06T13:45:04;2.72;;;1.02;;
53293;SDS011;39181;53.440;5.644;2023-08-06T13:47:31;2.88;;;1.60;;
53293;SDS011;39181;53.440;5.644;2023-08-06T13:49:56;2.95;;;1.42;;
53293;SDS011;39181;53.440;5.644;2023-08-06T13:52:22;4.50;;;1.55;;
53293;SDS011;39181;53.440;5.644;2023-08-06T13:54:47;3.40;;;1.80;;
53293;SDS011;39181;53.440;5.644;2023-08-06T13:57:13;3.88;;;1.50;;
53293;SDS011;39181;53.440;5.644;2023-08-06T13:59:39;2.28;;;1.30;;
53293;SDS011;39181;53.440;5.644;2023-08-06T14:02:04;3.70;;;1.95;;
53293;SDS011;39181;53.440;5.644;2023-08-06T14:04:30;3.53;;;2.03;;
53293;SDS011;39181;53.440;5.644;2023-08-06T14:06:55;4.35;;;2.10;;
53293;SDS011;39181;53.440;5.644;2023-08-06T14:09:21;4.00;;;1.75;;
53293;SDS011;39181;53.440;5.644;2023-08-06T14:11:46;5.82;;;2.72;;
53293;SDS011;39181;53.440;5.644;2023-08-06T14:14:12;5.75;;;2.63;;
53293;SDS011;39181;53.440;5.644;2023-08-06T14:16:38;1.98;;;1.77;;
53293;SDS011;39181;53.440;5.644;2023-08-06T14:19:04;3.60;;;2.40;;
53293;SDS011;39181;53.440;5.644;2023-08-06T14:21:29;3.35;;;2.35;;
53293;SDS011;39181;53.440;5.644;2023-08-06T14:23:55;2.35;;;2.10;;
53293;SDS011;39181;53.440;5.644;2023-08-06T14:26:21;3.25;;;2.20;;
53293;SDS011;39181;53.440;5.644;2023-08-06T14:28:46;6.43;;;2.30;;
53293;SDS011;39181;53.440;5.644;2023-08-06T14:31:12;5.88;;;2.42;;
53293;SDS011;39181;53.440;5.644;2023-08-06T14:33:37;4.18;;;2.10;;
53293;SDS011;39181;53.440;5.644;2023-08-06T14:36:03;2.95;;;2.17;;
53293;SDS011;39181;53.440;5.644;2023-08-06T14:38:29;5.72;;;2.03;;
53293;SDS011;39181;53.440;5.644;2023-08-06T14:40:54;4.00;;;1.80;;
53293;SDS011;39181;53.440;5.644;2023-08-06T14:43:20;3.72;;;1.80;;
53293;SDS011;39181;53.440;5.644;2023-08-06T14:45:45;3.53;;;1.90;;
53293;SDS011;39181;53.440;5.644;2023-08-06T14:48:11;8.73;;;1.83;;
53293;SDS011;39181;53.440;5.644;2023-08-06T14:50:37;6.85;;;1.98;;
53293;SDS011;39181;53.440;5.644;2023-08-06T14:53:04;5.68;;;1.20;;
53293;SDS011;39181;53.440;5.644;2023-08-06T14:55:30;5.57;;;1.23;;
53293;SDS011;39181;53.440;5.644;2023-08-06T14:57:56;9.68;;;2.25;;